Portada
METAR-TAF:

METAR-TAF

Aeropuertos :

Base Aérea de Alcantarilla

Murcia, España

latitud: 37-57N, longitud: 001-14W, altitud: 75 m

Observación

El informe se hizo hace 7 horas y 45 minutos, a las 18:00 UTC
Viento 4 kt del noreste
Temperatura 11°C
Humedad 87%
Presión 1020 hPa
Visibilidad 10 km o más
Escasas nubes a una altura de 2500 ft

METAR: LERI 231800Z 05004KT 9999 FEW025 11/09 Q1020 NOSIG

Hora: 02:45 (01:45 UTC)

Pronóstico

El informe se hizo hace 11 horas y 45 minutos, a las 14:00 UTC
Pronóstico válido del 23 a las 15 UTC al 23 a las 24 UTC
Viento 4 kt del este-noreste
Visibilidad 10 km o más
Escasas nubes a una altura de 2000 ft

TAF: LERI 231400Z 2315/2324 07004KT 9999 FEW020

Observaciones y pronósticos meteorológicos de más de 4000 aeropuertos (mensajes METAR y TAF).

Los puntos amarillos y rojos representan las estaciones disponibles.

Ponga el ratón en el punto deseado para ver el nombre de la estación.

Haga clic para ver las observaciones y los pronósticos meteorológicos.

Para cambiar el mapa : haga clic en los botones verdes con una cruz de color negro para hacer un zoom, en el botón verde con un guión para alejar o en las flechas verdes para mapas adyacentes.


METAR-TAF: